sensor_id;sensor_type;location;lat;lon;timestamp;P1;durP1;ratioP1;P2;durP2;ratioP2
23676;SDS011;31493;49.058;12.190;2022-09-17T00:01:23;2.42;;;1.60;;
23676;SDS011;31493;49.058;12.190;2022-09-17T00:03:51;2.30;;;1.73;;
23676;SDS011;31493;49.058;12.190;2022-09-17T00:06:22;2.50;;;1.60;;
23676;SDS011;31493;49.058;12.190;2022-09-17T00:08:50;2.55;;;1.70;;
23676;SDS011;31493;49.058;12.190;2022-09-17T00:11:19;6.57;;;1.65;;
23676;SDS011;31493;49.058;12.190;2022-09-17T00:16:20;3.70;;;1.73;;
23676;SDS011;31493;49.058;12.190;2022-09-17T00:18:49;8.13;;;1.90;;
23676;SDS011;31493;49.058;12.190;2022-09-17T00:21:16;2.15;;;1.88;;
23676;SDS011;31493;49.058;12.190;2022-09-17T00:23:46;4.37;;;1.70;;
23676;SDS011;31493;49.058;12.190;2022-09-17T00:26:13;3.03;;;1.73;;
23676;SDS011;31493;49.058;12.190;2022-09-17T00:28:40;3.33;;;2.00;;
23676;SDS011;31493;49.058;12.190;2022-09-17T00:31:09;7.07;;;1.70;;
23676;SDS011;31493;49.058;12.190;2022-09-17T00:33:37;2.70;;;1.60;;
23676;SDS011;31493;49.058;12.190;2022-09-17T00:36:05;3.53;;;2.20;;
23676;SDS011;31493;49.058;12.190;2022-09-17T00:38:33;3.35;;;1.95;;
23676;SDS011;31493;49.058;12.190;2022-09-17T00:41:02;5.57;;;2.05;;
23676;SDS011;31493;49.058;12.190;2022-09-17T00:43:34;5.50;;;2.22;;
23676;SDS011;31493;49.058;12.190;2022-09-17T00:46:04;4.28;;;2.15;;
23676;SDS011;31493;49.058;12.190;2022-09-17T00:48:39;4.28;;;2.30;;
23676;SDS011;31493;49.058;12.190;2022-09-17T00:51:06;4.20;;;2.28;;
23676;SDS011;31493;49.058;12.190;2022-09-17T00:53:36;4.03;;;2.33;;
23676;SDS011;31493;49.058;12.190;2022-09-17T00:56:08;5.22;;;2.58;;
23676;SDS011;31493;49.058;12.190;2022-09-17T00:58:41;2.88;;;2.10;;
23676;SDS011;31493;49.058;12.190;2022-09-17T01:01:08;5.35;;;2.78;;
23676;SDS011;31493;49.058;12.190;2022-09-17T01:03:35;4.47;;;2.60;;
23676;SDS011;31493;49.058;12.190;2022-09-17T01:06:04;2.80;;;2.25;;
23676;SDS011;31493;49.058;12.190;2022-09-17T01:08:48;7.00;;;2.70;;
23676;SDS011;31493;49.058;12.190;2022-09-17T01:11:32;3.53;;;2.60;;
23676;SDS011;31493;49.058;12.190;2022-09-17T01:14:13;4.68;;;2.72;;
23676;SDS011;31493;49.058;12.190;2022-09-17T01:16:47;6.20;;;3.00;;
23676;SDS011;31493;49.058;12.190;2022-09-17T01:19:34;6.72;;;3.08;;
23676;SDS011;31493;49.058;12.190;2022-09-17T01:22:24;3.70;;;2.67;;
23676;SDS011;31493;49.058;12.190;2022-09-17T01:25:04;3.70;;;2.75;;
23676;SDS011;31493;49.058;12.190;2022-09-17T01:31:03;7.70;;;3.03;;
23676;SDS011;31493;49.058;12.190;2022-09-17T01:33:46;5.03;;;2.90;;
23676;SDS011;31493;49.058;12.190;2022-09-17T01:36:22;5.00;;;2.83;;
23676;SDS011;31493;49.058;12.190;2022-09-17T01:39:11;4.50;;;2.80;;
23676;SDS011;31493;49.058;12.190;2022-09-17T01:41:48;6.72;;;2.85;;
23676;SDS011;31493;49.058;12.190;2022-09-17T01:44:21;6.00;;;2.95;;
23676;SDS011;31493;49.058;12.190;2022-09-17T01:46:54;5.00;;;3.03;;
23676;SDS011;31493;49.058;12.190;2022-09-17T01:49:28;7.97;;;3.30;;
23676;SDS011;31493;49.058;12.190;2022-09-17T01:51:58;3.85;;;2.80;;
23676;SDS011;31493;49.058;12.190;2022-09-17T01:54:28;7.47;;;3.00;;
23676;SDS011;31493;49.058;12.190;2022-09-17T01:57:00;4.97;;;3.00;;
23676;SDS011;31493;49.058;12.190;2022-09-17T01:59:31;6.22;;;3.03;;
23676;SDS011;31493;49.058;12.190;2022-09-17T02:02:05;9.75;;;3.65;;
23676;SDS011;31493;49.058;12.190;2022-09-17T02:04:35;5.72;;;2.95;;
23676;SDS011;31493;49.058;12.190;2022-09-17T02:07:09;4.55;;;3.20;;
23676;SDS011;31493;49.058;12.190;2022-09-17T02:09:45;4.78;;;2.92;;
23676;SDS011;31493;49.058;12.190;2022-09-17T02:12:19;5.90;;;2.60;;
23676;SDS011;31493;49.058;12.190;2022-09-17T02:14:54;4.10;;;2.63;;
23676;SDS011;31493;49.058;12.190;2022-09-17T02:17:26;4.10;;;2.28;;
23676;SDS011;31493;49.058;12.190;2022-09-17T02:19:57;4.57;;;2.70;;
23676;SDS011;31493;49.058;12.190;2022-09-17T02:22:27;7.90;;;2.38;;
23676;SDS011;31493;49.058;12.190;2022-09-17T02:25:00;7.30;;;2.70;;
23676;SDS011;31493;49.058;12.190;2022-09-17T02:27:34;6.10;;;2.50;;
23676;SDS011;31493;49.058;12.190;2022-09-17T02:30:09;9.52;;;2.40;;
23676;SDS011;31493;49.058;12.190;2022-09-17T02:32:38;4.15;;;2.22;;
23676;SDS011;31493;49.058;12.190;2022-09-17T02:35:07;5.40;;;2.42;;
23676;SDS011;31493;49.058;12.190;2022-09-17T02:37:35;7.60;;;2.28;;
23676;SDS011;31493;49.058;12.190;2022-09-17T02:40:02;5.72;;;2.40;;
23676;SDS011;31493;49.058;12.190;2022-09-17T02:42:31;5.93;;;2.53;;
23676;SDS011;31493;49.058;12.190;2022-09-17T02:45:09;5.05;;;2.50;;
23676;SDS011;31493;49.058;12.190;2022-09-17T02:47:50;3.22;;;2.33;;
23676;SDS011;31493;49.058;12.190;2022-09-17T02:50:34;6.18;;;2.30;;
23676;SDS011;31493;49.058;12.190;2022-09-17T02:53:18;5.13;;;2.20;;
23676;SDS011;31493;49.058;12.190;2022-09-17T02:55:57;6.57;;;2.65;;
23676;SDS011;31493;49.058;12.190;2022-09-17T02:58:30;8.85;;;2.80;;
23676;SDS011;31493;49.058;12.190;2022-09-17T03:01:04;8.43;;;2.90;;
23676;SDS011;31493;49.058;12.190;2022-09-17T03:03:40;8.95;;;2.72;;
23676;SDS011;31493;49.058;12.190;2022-09-17T03:06:09;7.75;;;3.03;;
23676;SDS011;31493;49.058;12.190;2022-09-17T03:08:39;5.97;;;2.50;;
23676;SDS011;31493;49.058;12.190;2022-09-17T03:11:07;7.15;;;2.60;;
23676;SDS011;31493;49.058;12.190;2022-09-17T03:13:37;8.18;;;2.33;;
23676;SDS011;31493;49.058;12.190;2022-09-17T03:16:04;3.40;;;2.33;;
23676;SDS011;31493;49.058;12.190;2022-09-17T03:18:32;6.45;;;2.42;;
23676;SDS011;31493;49.058;12.190;2022-09-17T03:21:01;7.10;;;2.80;;
23676;SDS011;31493;49.058;12.190;2022-09-17T03:23:28;4.82;;;2.70;;
23676;SDS011;31493;49.058;12.190;2022-09-17T03:25:55;6.80;;;3.10;;
23676;SDS011;31493;49.058;12.190;2022-09-17T03:28:22;5.93;;;2.90;;
23676;SDS011;31493;49.058;12.190;2022-09-17T03:30:50;5.95;;;2.13;;
23676;SDS011;31493;49.058;12.190;2022-09-17T03:33:18;6.32;;;3.33;;
23676;SDS011;31493;49.058;12.190;2022-09-17T03:35:45;5.90;;;3.17;;
23676;SDS011;31493;49.058;12.190;2022-09-17T03:38:13;7.68;;;3.60;;
23676;SDS011;31493;49.058;12.190;2022-09-17T03:40:41;5.82;;;2.88;;
23676;SDS011;31493;49.058;12.190;2022-09-17T03:43:09;7.82;;;3.05;;
23676;SDS011;31493;49.058;12.190;2022-09-17T03:45:35;5.47;;;2.83;;
23676;SDS011;31493;49.058;12.190;2022-09-17T03:48:03;7.35;;;3.17;;
23676;SDS011;31493;49.058;12.190;2022-09-17T03:50:30;9.18;;;3.33;;
23676;SDS011;31493;49.058;12.190;2022-09-17T03:52:57;5.55;;;3.15;;
23676;SDS011;31493;49.058;12.190;2022-09-17T03:55:25;8.05;;;3.45;;
23676;SDS011;31493;49.058;12.190;2022-09-17T03:57:52;8.85;;;3.80;;
23676;SDS011;31493;49.058;12.190;2022-09-17T04:00:20;8.35;;;3.28;;
23676;SDS011;31493;49.058;12.190;2022-09-17T04:02:47;10.05;;;3.90;;
23676;SDS011;31493;49.058;12.190;2022-09-17T04:05:14;9.02;;;3.42;;
23676;SDS011;31493;49.058;12.190;2022-09-17T04:07:41;9.38;;;3.92;;
23676;SDS011;31493;49.058;12.190;2022-09-17T04:10:08;10.13;;;3.35;;
23676;SDS011;31493;49.058;12.190;2022-09-17T04:12:37;8.88;;;3.83;;
23676;SDS011;31493;49.058;12.190;2022-09-17T04:17:32;8.88;;;4.30;;
23676;SDS011;31493;49.058;12.190;2022-09-17T04:19:59;9.95;;;3.33;;
23676;SDS011;31493;49.058;12.190;2022-09-17T04:22:26;10.93;;;3.67;;
23676;SDS011;31493;49.058;12.190;2022-09-17T04:24:53;8.43;;;3.10;;
23676;SDS011;31493;49.058;12.190;2022-09-17T04:27:20;9.23;;;3.47;;
23676;SDS011;31493;49.058;12.190;2022-09-17T04:29:48;14.50;;;4.88;;
23676;SDS011;31493;49.058;12.190;2022-09-17T04:32:15;11.98;;;3.65;;
23676;SDS011;31493;49.058;12.190;2022-09-17T04:34:43;7.70;;;3.25;;
23676;SDS011;31493;49.058;12.190;2022-09-17T04:37:10;6.50;;;3.45;;
23676;SDS011;31493;49.058;12.190;2022-09-17T04:39:37;5.50;;;3.35;;
23676;SDS011;31493;49.058;12.190;2022-09-17T04:42:04;7.72;;;3.60;;
23676;SDS011;31493;49.058;12.190;2022-09-17T04:44:31;7.65;;;3.30;;
23676;SDS011;31493;49.058;12.190;2022-09-17T04:46:59;6.47;;;3.40;;
23676;SDS011;31493;49.058;12.190;2022-09-17T04:49:26;9.85;;;3.63;;
23676;SDS011;31493;49.058;12.190;2022-09-17T04:54:22;11.13;;;3.67;;
23676;SDS011;31493;49.058;12.190;2022-09-17T04:56:49;14.75;;;3.80;;
23676;SDS011;31493;49.058;12.190;2022-09-17T04:59:16;8.23;;;3.78;;
23676;SDS011;31493;49.058;12.190;2022-09-17T05:01:43;11.02;;;3.45;;
23676;SDS011;31493;49.058;12.190;2022-09-17T05:04:12;6.93;;;3.40;;
23676;SDS011;31493;49.058;12.190;2022-09-17T05:06:39;7.72;;;3.63;;
23676;SDS011;31493;49.058;12.190;2022-09-17T05:09:06;10.95;;;3.03;;
23676;SDS011;31493;49.058;12.190;2022-09-17T05:11:33;10.75;;;3.50;;
23676;SDS011;31493;49.058;12.190;2022-09-17T05:14:00;8.30;;;3.30;;
23676;SDS011;31493;49.058;12.190;2022-09-17T05:16:27;14.40;;;3.88;;
23676;SDS011;31493;49.058;12.190;2022-09-17T05:18:55;6.85;;;3.10;;
23676;SDS011;31493;49.058;12.190;2022-09-17T05:21:23;11.02;;;3.22;;
23676;SDS011;31493;49.058;12.190;2022-09-17T05:23:50;11.48;;;3.25;;
23676;SDS011;31493;49.058;12.190;2022-09-17T05:26:18;9.07;;;3.47;;
23676;SDS011;31493;49.058;12.190;2022-09-17T05:28:45;8.63;;;3.05;;
23676;SDS011;31493;49.058;12.190;2022-09-17T05:31:12;8.35;;;2.97;;
23676;SDS011;31493;49.058;12.190;2022-09-17T05:33:39;10.70;;;3.40;;
23676;SDS011;31493;49.058;12.190;2022-09-17T05:36:06;8.98;;;2.70;;
23676;SDS011;31493;49.058;12.190;2022-09-17T05:38:35;13.93;;;3.47;;
23676;SDS011;31493;49.058;12.190;2022-09-17T05:41:03;6.35;;;2.58;;
23676;SDS011;31493;49.058;12.190;2022-09-17T05:43:31;8.55;;;3.20;;
23676;SDS011;31493;49.058;12.190;2022-09-17T05:46:01;7.20;;;2.85;;
23676;SDS011;31493;49.058;12.190;2022-09-17T05:48:30;8.80;;;2.72;;
23676;SDS011;31493;49.058;12.190;2022-09-17T05:50:57;8.88;;;2.80;;
23676;SDS011;31493;49.058;12.190;2022-09-17T05:53:24;6.18;;;2.67;;
23676;SDS011;31493;49.058;12.190;2022-09-17T05:55:55;8.40;;;2.38;;
23676;SDS011;31493;49.058;12.190;2022-09-17T05:58:23;10.27;;;3.13;;
23676;SDS011;31493;49.058;12.190;2022-09-17T06:00:50;6.82;;;2.55;;
23676;SDS011;31493;49.058;12.190;2022-09-17T06:03:17;6.07;;;2.30;;
23676;SDS011;31493;49.058;12.190;2022-09-17T06:05:51;9.18;;;2.35;;
23676;SDS011;31493;49.058;12.190;2022-09-17T06:08:20;7.97;;;2.72;;
23676;SDS011;31493;49.058;12.190;2022-09-17T06:10:47;9.60;;;2.75;;
23676;SDS011;31493;49.058;12.190;2022-09-17T06:13:16;9.52;;;2.30;;
23676;SDS011;31493;49.058;12.190;2022-09-17T06:15:47;9.77;;;2.88;;
23676;SDS011;31493;49.058;12.190;2022-09-17T06:18:15;6.20;;;2.28;;
23676;SDS011;31493;49.058;12.190;2022-09-17T06:20:43;7.90;;;2.65;;
23676;SDS011;31493;49.058;12.190;2022-09-17T06:23:18;10.85;;;2.85;;
23676;SDS011;31493;49.058;12.190;2022-09-17T06:25:49;8.52;;;2.70;;
23676;SDS011;31493;49.058;12.190;2022-09-17T06:28:18;10.73;;;2.40;;
23676;SDS011;31493;49.058;12.190;2022-09-17T06:30:45;7.15;;;2.50;;
23676;SDS011;31493;49.058;12.190;2022-09-17T06:33:13;8.65;;;2.28;;
23676;SDS011;31493;49.058;12.190;2022-09-17T06:35:40;9.05;;;2.25;;
23676;SDS011;31493;49.058;12.190;2022-09-17T06:38:08;12.80;;;2.40;;
23676;SDS011;31493;49.058;12.190;2022-09-17T06:40:35;13.27;;;2.72;;
23676;SDS011;31493;49.058;12.190;2022-09-17T06:43:02;10.73;;;2.42;;
23676;SDS011;31493;49.058;12.190;2022-09-17T06:45:30;7.05;;;2.30;;
23676;SDS011;31493;49.058;12.190;2022-09-17T06:47:57;4.85;;;2.25;;
23676;SDS011;31493;49.058;12.190;2022-09-17T06:50:29;13.77;;;3.00;;
23676;SDS011;31493;49.058;12.190;2022-09-17T06:52:56;12.02;;;2.78;;
23676;SDS011;31493;49.058;12.190;2022-09-17T06:55:23;11.25;;;2.97;;
23676;SDS011;31493;49.058;12.190;2022-09-17T06:57:50;12.07;;;2.40;;
23676;SDS011;31493;49.058;12.190;2022-09-17T07:00:17;11.18;;;2.83;;
23676;SDS011;31493;49.058;12.190;2022-09-17T07:02:54;7.95;;;2.33;;
23676;SDS011;31493;49.058;12.190;2022-09-17T07:05:22;11.63;;;2.53;;
23676;SDS011;31493;49.058;12.190;2022-09-17T07:07:49;7.93;;;2.38;;
23676;SDS011;31493;49.058;12.190;2022-09-17T07:10:16;9.38;;;2.50;;
23676;SDS011;31493;49.058;12.190;2022-09-17T07:12:43;6.03;;;2.03;;
23676;SDS011;31493;49.058;12.190;2022-09-17T07:15:10;12.23;;;2.42;;
23676;SDS011;31493;49.058;12.190;2022-09-17T07:17:40;6.10;;;2.25;;
23676;SDS011;31493;49.058;12.190;2022-09-17T07:20:10;10.38;;;2.63;;
23676;SDS011;31493;49.058;12.190;2022-09-17T07:22:37;7.22;;;2.40;;
23676;SDS011;31493;49.058;12.190;2022-09-17T07:25:05;9.50;;;2.67;;
23676;SDS011;31493;49.058;12.190;2022-09-17T07:27:33;7.93;;;2.88;;
23676;SDS011;31493;49.058;12.190;2022-09-17T07:30:00;8.00;;;2.60;;
23676;SDS011;31493;49.058;12.190;2022-09-17T07:32:27;8.95;;;2.50;;
23676;SDS011;31493;49.058;12.190;2022-09-17T07:34:55;6.35;;;2.45;;
23676;SDS011;31493;49.058;12.190;2022-09-17T07:37:23;6.40;;;2.67;;
23676;SDS011;31493;49.058;12.190;2022-09-17T07:39:50;5.85;;;2.65;;
23676;SDS011;31493;49.058;12.190;2022-09-17T07:42:17;11.57;;;3.20;;
23676;SDS011;31493;49.058;12.190;2022-09-17T07:44:44;6.90;;;2.95;;
23676;SDS011;31493;49.058;12.190;2022-09-17T07:47:12;7.45;;;2.22;;
23676;SDS011;31493;49.058;12.190;2022-09-17T07:49:39;5.60;;;2.78;;
23676;SDS011;31493;49.058;12.190;2022-09-17T07:52:06;8.68;;;2.83;;
23676;SDS011;31493;49.058;12.190;2022-09-17T07:54:34;9.85;;;3.35;;
23676;SDS011;31493;49.058;12.190;2022-09-17T07:57:02;5.82;;;2.40;;
23676;SDS011;31493;49.058;12.190;2022-09-17T07:59:29;4.28;;;2.45;;
23676;SDS011;31493;49.058;12.190;2022-09-17T08:01:56;7.40;;;2.25;;
23676;SDS011;31493;49.058;12.190;2022-09-17T08:04:23;5.60;;;2.15;;
23676;SDS011;31493;49.058;12.190;2022-09-17T08:06:50;5.97;;;2.53;;
23676;SDS011;31493;49.058;12.190;2022-09-17T08:09:17;7.82;;;2.30;;
23676;SDS011;31493;49.058;12.190;2022-09-17T08:11:46;5.53;;;2.28;;
23676;SDS011;31493;49.058;12.190;2022-09-17T08:14:13;3.83;;;1.38;;
23676;SDS011;31493;49.058;12.190;2022-09-17T08:16:41;4.73;;;1.53;;
23676;SDS011;31493;49.058;12.190;2022-09-17T08:21:37;3.70;;;1.27;;
23676;SDS011;31493;49.058;12.190;2022-09-17T08:24:04;6.63;;;1.48;;
23676;SDS011;31493;49.058;12.190;2022-09-17T08:26:31;4.55;;;1.38;;
23676;SDS011;31493;49.058;12.190;2022-09-17T08:28:59;3.85;;;1.35;;
23676;SDS011;31493;49.058;12.190;2022-09-17T08:31:26;2.65;;;1.23;;
23676;SDS011;31493;49.058;12.190;2022-09-17T08:33:55;2.42;;;1.10;;
23676;SDS011;31493;49.058;12.190;2022-09-17T08:36:22;4.50;;;1.00;;
23676;SDS011;31493;49.058;12.190;2022-09-17T08:38:51;4.63;;;1.17;;
23676;SDS011;31493;49.058;12.190;2022-09-17T08:41:23;2.15;;;1.23;;
23676;SDS011;31493;49.058;12.190;2022-09-17T08:44:06;2.35;;;0.90;;
23676;SDS011;31493;49.058;12.190;2022-09-17T08:46:42;3.35;;;1.20;;
23676;SDS011;31493;49.058;12.190;2022-09-17T08:49:15;3.13;;;1.02;;
23676;SDS011;31493;49.058;12.190;2022-09-17T08:51:54;4.55;;;1.20;;
23676;SDS011;31493;49.058;12.190;2022-09-17T08:54:34;6.45;;;1.63;;
23676;SDS011;31493;49.058;12.190;2022-09-17T08:57:10;2.55;;;1.30;;
23676;SDS011;31493;49.058;12.190;2022-09-17T08:59:46;1.92;;;1.30;;
23676;SDS011;31493;49.058;12.190;2022-09-17T09:02:23;6.07;;;3.50;;
23676;SDS011;31493;49.058;12.190;2022-09-17T09:05:07;4.25;;;1.88;;
23676;SDS011;31493;49.058;12.190;2022-09-17T09:07:41;5.63;;;3.30;;
23676;SDS011;31493;49.058;12.190;2022-09-17T09:10:14;2.47;;;1.30;;
23676;SDS011;31493;49.058;12.190;2022-09-17T09:12:48;2.83;;;1.40;;
23676;SDS011;31493;49.058;12.190;2022-09-17T09:17:49;3.72;;;1.58;;
23676;SDS011;31493;49.058;12.190;2022-09-17T09:20:20;3.85;;;1.30;;
23676;SDS011;31493;49.058;12.190;2022-09-17T09:22:56;2.35;;;1.13;;
23676;SDS011;31493;49.058;12.190;2022-09-17T09:25:36;6.15;;;2.30;;
23676;SDS011;31493;49.058;12.190;2022-09-17T09:28:13;2.88;;;1.02;;
23676;SDS011;31493;49.058;12.190;2022-09-17T09:30:58;2.10;;;1.08;;
23676;SDS011;31493;49.058;12.190;2022-09-17T09:33:32;4.63;;;1.27;;
23676;SDS011;31493;49.058;12.190;2022-09-17T09:36:04;2.15;;;1.00;;
23676;SDS011;31493;49.058;12.190;2022-09-17T09:38:34;4.30;;;1.20;;
23676;SDS011;31493;49.058;12.190;2022-09-17T09:41:07;2.22;;;1.42;;
23676;SDS011;31493;49.058;12.190;2022-09-17T09:43:38;3.92;;;1.80;;
23676;SDS011;31493;49.058;12.190;2022-09-17T09:49:07;2.80;;;1.42;;
23676;SDS011;31493;49.058;12.190;2022-09-17T09:51:43;4.63;;;1.55;;
23676;SDS011;31493;49.058;12.190;2022-09-17T09:54:23;3.33;;;1.60;;
23676;SDS011;31493;49.058;12.190;2022-09-17T09:56:57;2.80;;;1.67;;
23676;SDS011;31493;49.058;12.190;2022-09-17T09:59:30;4.20;;;1.75;;
23676;SDS011;31493;49.058;12.190;2022-09-17T10:01:59;2.00;;;1.67;;
23676;SDS011;31493;49.058;12.190;2022-09-17T10:04:26;3.33;;;1.80;;
23676;SDS011;31493;49.058;12.190;2022-09-17T10:06:58;4.43;;;1.87;;
23676;SDS011;31493;49.058;12.190;2022-09-17T10:09:28;4.00;;;1.80;;
23676;SDS011;31493;49.058;12.190;2022-09-17T10:14:28;4.68;;;1.90;;
23676;SDS011;31493;49.058;12.190;2022-09-17T10:17:11;5.80;;;2.03;;
23676;SDS011;31493;49.058;12.190;2022-09-17T10:19:45;3.55;;;1.98;;
23676;SDS011;31493;49.058;12.190;2022-09-17T10:22:34;4.10;;;2.10;;
23676;SDS011;31493;49.058;12.190;2022-09-17T10:25:04;4.13;;;2.05;;
23676;SDS011;31493;49.058;12.190;2022-09-17T10:27:33;4.97;;;2.28;;
23676;SDS011;31493;49.058;12.190;2022-09-17T10:30:02;8.02;;;2.35;;
23676;SDS011;31493;49.058;12.190;2022-09-17T10:32:42;5.97;;;2.53;;
23676;SDS011;31493;49.058;12.190;2022-09-17T10:35:23;6.78;;;2.40;;
23676;SDS011;31493;49.058;12.190;2022-09-17T10:37:52;6.05;;;2.35;;
23676;SDS011;31493;49.058;12.190;2022-09-17T10:40:27;7.60;;;2.50;;
23676;SDS011;31493;49.058;12.190;2022-09-17T10:45:54;18.55;;;3.70;;
23676;SDS011;31493;49.058;12.190;2022-09-17T10:48:26;12.07;;;3.30;;
23676;SDS011;31493;49.058;12.190;2022-09-17T10:50:58;12.77;;;3.65;;
23676;SDS011;31493;49.058;12.190;2022-09-17T10:53:27;15.27;;;4.18;;
23676;SDS011;31493;49.058;12.190;2022-09-17T10:55:57;16.08;;;5.80;;
23676;SDS011;31493;49.058;12.190;2022-09-17T10:58:42;13.35;;;3.65;;
23676;SDS011;31493;49.058;12.190;2022-09-17T11:01:23;8.93;;;3.47;;
23676;SDS011;31493;49.058;12.190;2022-09-17T11:04:03;9.32;;;3.15;;
23676;SDS011;31493;49.058;12.190;2022-09-17T11:06:58;10.80;;;3.28;;
23676;SDS011;31493;49.058;12.190;2022-09-17T11:09:40;9.10;;;3.30;;
23676;SDS011;31493;49.058;12.190;2022-09-17T11:12:27;10.73;;;2.22;;
23676;SDS011;31493;49.058;12.190;2022-09-17T11:15:09;9.05;;;3.65;;
23676;SDS011;31493;49.058;12.190;2022-09-17T11:20:55;8.95;;;3.50;;
23676;SDS011;31493;49.058;12.190;2022-09-17T11:23:37;17.92;;;4.85;;
23676;SDS011;31493;49.058;12.190;2022-09-17T11:26:22;14.40;;;3.50;;
23676;SDS011;31493;49.058;12.190;2022-09-17T11:29:01;9.68;;;3.47;;
23676;SDS011;31493;49.058;12.190;2022-09-17T11:31:43;7.72;;;2.72;;
23676;SDS011;31493;49.058;12.190;2022-09-17T11:34:21;13.57;;;2.72;;
23676;SDS011;31493;49.058;12.190;2022-09-17T11:36:59;13.80;;;3.15;;
23676;SDS011;31493;49.058;12.190;2022-09-17T11:39:33;13.60;;;4.10;;
23676;SDS011;31493;49.058;12.190;2022-09-17T11:42:08;8.32;;;2.92;;
23676;SDS011;31493;49.058;12.190;2022-09-17T11:44:39;10.23;;;2.78;;
23676;SDS011;31493;49.058;12.190;2022-09-17T11:47:14;7.53;;;2.33;;
23676;SDS011;31493;49.058;12.190;2022-09-17T11:49:47;10.85;;;2.70;;
23676;SDS011;31493;49.058;12.190;2022-09-17T11:52:19;12.38;;;3.22;;
23676;SDS011;31493;49.058;12.190;2022-09-17T11:54:51;14.20;;;3.00;;
23676;SDS011;31493;49.058;12.190;2022-09-17T11:57:21;10.57;;;2.70;;
23676;SDS011;31493;49.058;12.190;2022-09-17T11:59:53;10.00;;;2.35;;
23676;SDS011;31493;49.058;12.190;2022-09-17T12:02:27;13.68;;;3.05;;
23676;SDS011;31493;49.058;12.190;2022-09-17T12:05:08;13.15;;;3.03;;
23676;SDS011;31493;49.058;12.190;2022-09-17T12:07:44;10.05;;;2.65;;
23676;SDS011;31493;49.058;12.190;2022-09-17T12:10:31;7.50;;;2.58;;
23676;SDS011;31493;49.058;12.190;2022-09-17T12:13:05;9.98;;;2.65;;
23676;SDS011;31493;49.058;12.190;2022-09-17T12:15:43;14.15;;;2.63;;
23676;SDS011;31493;49.058;12.190;2022-09-17T12:18:16;5.75;;;2.30;;
23676;SDS011;31493;49.058;12.190;2022-09-17T12:20:51;9.27;;;2.33;;
23676;SDS011;31493;49.058;12.190;2022-09-17T12:23:26;12.75;;;2.47;;
23676;SDS011;31493;49.058;12.190;2022-09-17T12:26:05;11.70;;;2.35;;
23676;SDS011;31493;49.058;12.190;2022-09-17T12:28:41;9.30;;;2.38;;
23676;SDS011;31493;49.058;12.190;2022-09-17T12:31:19;10.48;;;2.45;;
23676;SDS011;31493;49.058;12.190;2022-09-17T12:33:54;10.73;;;2.50;;
23676;SDS011;31493;49.058;12.190;2022-09-17T12:36:30;8.27;;;2.30;;
23676;SDS011;31493;49.058;12.190;2022-09-17T12:42:14;7.60;;;2.13;;
23676;SDS011;31493;49.058;12.190;2022-09-17T12:44:58;8.20;;;2.30;;
23676;SDS011;31493;49.058;12.190;2022-09-17T12:47:49;10.60;;;2.38;;
23676;SDS011;31493;49.058;12.190;2022-09-17T12:50:28;10.07;;;2.17;;
23676;SDS011;31493;49.058;12.190;2022-09-17T12:53:08;9.80;;;2.92;;
23676;SDS011;31493;49.058;12.190;2022-09-17T12:55:53;15.52;;;4.53;;
23676;SDS011;31493;49.058;12.190;2022-09-17T12:58:35;11.82;;;3.60;;
23676;SDS011;31493;49.058;12.190;2022-09-17T13:01:12;7.25;;;2.42;;
23676;SDS011;31493;49.058;12.190;2022-09-17T13:03:47;11.35;;;3.00;;
23676;SDS011;31493;49.058;12.190;2022-09-17T13:06:29;15.65;;;4.35;;
23676;SDS011;31493;49.058;12.190;2022-09-17T13:12:17;9.95;;;2.40;;
23676;SDS011;31493;49.058;12.190;2022-09-17T13:15:13;7.25;;;2.45;;
23676;SDS011;31493;49.058;12.190;2022-09-17T13:17:57;11.25;;;2.25;;
23676;SDS011;31493;49.058;12.190;2022-09-17T13:20:30;10.88;;;2.20;;
23676;SDS011;31493;49.058;12.190;2022-09-17T13:23:00;6.80;;;2.17;;
23676;SDS011;31493;49.058;12.190;2022-09-17T13:25:27;7.60;;;2.20;;
23676;SDS011;31493;49.058;12.190;2022-09-17T13:28:05;7.38;;;2.30;;
23676;SDS011;31493;49.058;12.190;2022-09-17T13:36:37;12.00;;;2.50;;
23676;SDS011;31493;49.058;12.190;2022-09-17T13:39:08;7.88;;;2.30;;
23676;SDS011;31493;49.058;12.190;2022-09-17T13:41:37;6.50;;;2.15;;
23676;SDS011;31493;49.058;12.190;2022-09-17T13:44:06;11.30;;;2.72;;
23676;SDS011;31493;49.058;12.190;2022-09-17T13:46:36;5.40;;;2.05;;
23676;SDS011;31493;49.058;12.190;2022-09-17T13:49:05;6.30;;;2.22;;
23676;SDS011;31493;49.058;12.190;2022-09-17T13:51:43;14.10;;;2.85;;
23676;SDS011;31493;49.058;12.190;2022-09-17T13:54:12;9.93;;;2.33;;
23676;SDS011;31493;49.058;12.190;2022-09-17T13:56:42;17.90;;;6.72;;
23676;SDS011;31493;49.058;12.190;2022-09-17T13:59:12;7.38;;;2.85;;
23676;SDS011;31493;49.058;12.190;2022-09-17T14:01:55;6.70;;;2.47;;
23676;SDS011;31493;49.058;12.190;2022-09-17T14:10:00;8.77;;;2.10;;
23676;SDS011;31493;49.058;12.190;2022-09-17T14:12:54;7.15;;;3.00;;
23676;SDS011;31493;49.058;12.190;2022-09-17T14:15:33;6.00;;;2.50;;
23676;SDS011;31493;49.058;12.190;2022-09-17T14:21:19;9.07;;;2.83;;
23676;SDS011;31493;49.058;12.190;2022-09-17T14:23:53;6.78;;;2.50;;
23676;SDS011;31493;49.058;12.190;2022-09-17T14:26:25;9.68;;;2.90;;
23676;SDS011;31493;49.058;12.190;2022-09-17T14:29:03;6.85;;;2.38;;
23676;SDS011;31493;49.058;12.190;2022-09-17T14:31:38;5.13;;;2.22;;
23676;SDS011;31493;49.058;12.190;2022-09-17T14:34:07;5.00;;;1.80;;
23676;SDS011;31493;49.058;12.190;2022-09-17T14:36:41;2.45;;;1.35;;
23676;SDS011;31493;49.058;12.190;2022-09-17T14:39:09;3.72;;;1.60;;
23676;SDS011;31493;49.058;12.190;2022-09-17T14:41:42;5.70;;;1.58;;
23676;SDS011;31493;49.058;12.190;2022-09-17T14:44:12;4.50;;;1.63;;
23676;SDS011;31493;49.058;12.190;2022-09-17T14:46:44;4.30;;;1.60;;
23676;SDS011;31493;49.058;12.190;2022-09-17T14:49:18;5.63;;;1.70;;
23676;SDS011;31493;49.058;12.190;2022-09-17T14:51:47;5.90;;;1.90;;
23676;SDS011;31493;49.058;12.190;2022-09-17T14:54:21;3.22;;;1.30;;
23676;SDS011;31493;49.058;12.190;2022-09-17T14:56:59;4.80;;;1.38;;
23676;SDS011;31493;49.058;12.190;2022-09-17T14:59:32;3.33;;;1.30;;
23676;SDS011;31493;49.058;12.190;2022-09-17T15:05:16;4.43;;;1.42;;
23676;SDS011;31493;49.058;12.190;2022-09-17T15:10:16;5.05;;;1.83;;
23676;SDS011;31493;49.058;12.190;2022-09-17T15:12:45;5.50;;;2.03;;
23676;SDS011;31493;49.058;12.190;2022-09-17T15:15:17;4.88;;;1.65;;
23676;SDS011;31493;49.058;12.190;2022-09-17T15:17:46;3.63;;;1.60;;
23676;SDS011;31493;49.058;12.190;2022-09-17T15:20:17;3.42;;;1.20;;
23676;SDS011;31493;49.058;12.190;2022-09-17T15:22:48;2.10;;;1.10;;
23676;SDS011;31493;49.058;12.190;2022-09-17T15:25:21;2.15;;;1.00;;
23676;SDS011;31493;49.058;12.190;2022-09-17T15:27:50;5.18;;;0.90;;
23676;SDS011;31493;49.058;12.190;2022-09-17T15:30:24;2.50;;;0.73;;
23676;SDS011;31493;49.058;12.190;2022-09-17T15:32:52;2.25;;;0.93;;
23676;SDS011;31493;49.058;12.190;2022-09-17T15:35:22;1.08;;;0.77;;
23676;SDS011;31493;49.058;12.190;2022-09-17T15:37:53;1.52;;;0.60;;
23676;SDS011;31493;49.058;12.190;2022-09-17T15:40:26;2.60;;;0.80;;
23676;SDS011;31493;49.058;12.190;2022-09-17T15:43:00;5.05;;;0.80;;
23676;SDS011;31493;49.058;12.190;2022-09-17T15:45:32;1.75;;;0.70;;
23676;SDS011;31493;49.058;12.190;2022-09-17T15:48:03;1.80;;;0.70;;
23676;SDS011;31493;49.058;12.190;2022-09-17T15:50:31;5.33;;;0.87;;
23676;SDS011;31493;49.058;12.190;2022-09-17T15:55:59;2.08;;;0.95;;